METAR Data
IDs: Format: Raw Decoded Include TAF

Data at: 1953 UTC 15 Sep 2019

Region: TOP
KATL 151852Z 04013G17KT 10SM BKN045 BKN250 32/19 A3011 RMK AO2 SLP186 T03170189

KBOS 151854Z 28009G17KT 10SM FEW035 SCT220 27/11 A3004 RMK AO2 SLP171 T02720106 $

KBWI 151854Z VRB05KT 10SM FEW060 FEW250 30/11 A3011 RMK AO2 SLP194 T03000111

KCLE 151851Z 20009KT 10SM OVC100 23/16 A3018 RMK AO2 SLP216 T02330161

KCLT 151852Z 03005KT 10SM FEW044 BKN250 32/19 A3011 RMK AO2 SLP187 T03170189

KCVG 151852Z 00000KT 10SM FEW090 SCT150 BKN230 30/09 A3014 RMK AO2 SLP198 T03000094 $

KDCA 151852Z 36009KT 10SM FEW030 FEW250 31/13 A3012 RMK AO2 SLP199 T03110128

KDEN 151853Z VRB03KT 10SM FEW110 BKN220 29/M02 A3014 RMK AO2 SLP121 T02941017

KDFW 151853Z 00000KT 10SM FEW060 FEW300 35/17 A3004 RMK AO2 SLP161 T03500172

KDTW 151853Z 16006KT 7SM -DZ BKN050 BKN065 OVC095 21/17 A3010 RMK AO2 DZB39RAB44E50 PRESFR SLP192 P0002 T02060172

KEWR 151851Z 25007KT 10SM FEW055 FEW090 FEW200 SCT250 28/11 A3008 RMK AO2 SLP185 T02830111

KFLL 151853Z 28012G19KT 10SM SCT040 BKN250 34/23 A2988 RMK AO2 SLP117 T03390233 $

KIAD 151852Z VRB05KT 10SM CLR 29/11 A3013 RMK AO2 SLP201 T02890111

KIAH 151853Z 10010KT 10SM SCT060 SCT250 34/19 A3000 RMK AO2 SLP156 T03390189 $

KJFK 151851Z 19007KT 10SM FEW050 FEW200 SCT250 26/18 A3009 RMK AO2 SLP191 T02610178

KLAS 151856Z 09006KT 10SM FEW170 SCT250 36/06 A2991 RMK AO2 SLP097 T03560061

KLAX 151853Z 27006KT 5SM HZ FEW150 BKN200 27/18 A2989 RMK AO2 SLP119 T02670183

KLGA 151851Z 00000KT 10SM FEW045 FEW110 SCT250 29/12 A3007 RMK AO2 SLP183 T02890117 $

KMCO 151853Z 36018G23KT 10SM FEW035 BKN070 BKN250 31/23 A2990 RMK AO2 PK WND 01027/1811 SLP123 T03060228

KMDW 151853Z 20011KT 10SM FEW020 FEW160 SCT250 24/19 A3001 RMK AO2 SLP152 T02440194 $

KMEM 151854Z 02003KT 10SM SCT055 35/19 A3010 RMK AO2 SLP187 T03500194 $

KMIA 151853Z 24010KT 10SM SCT044 SCT180 SCT250 34/23 A2989 RMK AO2 SLP121 T03390228 $

KMSP 151853Z 26004KT 10SM FEW020 SCT250 26/18 A2999 RMK AO2 SLP153 T02610183 $

KORD 151851Z 20008KT 10SM FEW030 BKN160 24/19 A3000 RMK AO2 SLP157 T02390189 $

KPDX 151853Z 12009KT 10SM -RA SCT008 OVC085 16/14 A2980 RMK AO2 SLP088 P0008 T01610144

KPHL 151854Z 31006KT 10SM FEW041 FEW270 28/13 A3011 RMK AO2 SLP194 T02830128

KPHX 151851Z VRB05KT 10SM FEW060 FEW150 SCT250 33/16 A2992 RMK AO2 SLP110 T03330161

KPIT 151851Z 00000KT 10SM FEW045 BKN140 BKN250 26/12 A3019 RMK AO2 SLP225 T02610122

KSAN 151851Z 33005KT 10SM FEW003 SCT250 27/19 A2989 RMK AO2 SLP122 T02720194

KSEA 151853Z 16008KT 8SM -RA FEW010 BKN037 OVC046 15/13 A2975 RMK AO2 SLP079 P0005 T01500128

KSFO 151856Z 26016G23KT 10SM FEW009 BKN200 21/12 A2990 RMK AO2 SLP126 T02110122

KSLC 151854Z 16015G24KT 10SM FEW090 FEW250 31/M02 A2999 RMK AO2 SLP096 T03111022 $

KSTL 151851Z 22008KT 10SM FEW150 SCT200 BKN250 32/18 A3008 RMK AO2 SLP173 T03220183 $

KTPA 151853Z 35010KT 10SM SCT034TCU BKN160 OVC220 32/23 A2992 RMK AO2 SLP129 TCU ALQDS T03220233 $